sensor_id;sensor_type;location;lat;lon;timestamp;P1;durP1;ratioP1;P2;durP2;ratioP2
50355;SDS011;36264;51.296;-0.602;2023-03-11T00:02:08;14.52;;;7.55;;
50355;SDS011;36264;51.296;-0.602;2023-03-11T00:04:34;16.92;;;7.68;;
50355;SDS011;36264;51.296;-0.602;2023-03-11T00:07:00;13.85;;;6.82;;
50355;SDS011;36264;51.296;-0.602;2023-03-11T00:09:25;18.60;;;7.97;;
50355;SDS011;36264;51.296;-0.602;2023-03-11T00:11:51;16.30;;;7.50;;
50355;SDS011;36264;51.296;-0.602;2023-03-11T00:14:16;13.02;;;6.75;;
50355;SDS011;36264;51.296;-0.602;2023-03-11T00:16:41;16.60;;;5.97;;
50355;SDS011;36264;51.296;-0.602;2023-03-11T00:19:08;10.30;;;5.90;;
50355;SDS011;36264;51.296;-0.602;2023-03-11T00:21:34;9.85;;;5.35;;
50355;SDS011;36264;51.296;-0.602;2023-03-11T00:24:00;12.00;;;5.10;;
50355;SDS011;36264;51.296;-0.602;2023-03-11T00:26:27;9.23;;;4.78;;
50355;SDS011;36264;51.296;-0.602;2023-03-11T00:28:53;7.95;;;4.90;;
50355;SDS011;36264;51.296;-0.602;2023-03-11T00:31:19;9.68;;;4.38;;
50355;SDS011;36264;51.296;-0.602;2023-03-11T00:33:45;8.57;;;4.63;;
50355;SDS011;36264;51.296;-0.602;2023-03-11T00:36:15;11.30;;;5.10;;
50355;SDS011;36264;51.296;-0.602;2023-03-11T00:38:48;7.80;;;4.30;;
50355;SDS011;36264;51.296;-0.602;2023-03-11T00:41:14;9.00;;;5.10;;
50355;SDS011;36264;51.296;-0.602;2023-03-11T00:43:39;8.18;;;4.28;;
50355;SDS011;36264;51.296;-0.602;2023-03-11T00:46:04;7.68;;;4.72;;
50355;SDS011;36264;51.296;-0.602;2023-03-11T00:48:30;8.73;;;4.15;;
50355;SDS011;36264;51.296;-0.602;2023-03-11T00:50:56;8.00;;;4.47;;
50355;SDS011;36264;51.296;-0.602;2023-03-11T00:53:21;7.78;;;4.35;;
50355;SDS011;36264;51.296;-0.602;2023-03-11T00:55:46;8.73;;;4.30;;
50355;SDS011;36264;51.296;-0.602;2023-03-11T00:58:12;11.65;;;4.88;;
50355;SDS011;36264;51.296;-0.602;2023-03-11T01:00:37;8.82;;;4.70;;
50355;SDS011;36264;51.296;-0.602;2023-03-11T01:03:03;8.52;;;5.03;;
50355;SDS011;36264;51.296;-0.602;2023-03-11T01:05:29;9.10;;;5.32;;
50355;SDS011;36264;51.296;-0.602;2023-03-11T01:07:57;7.90;;;4.43;;
50355;SDS011;36264;51.296;-0.602;2023-03-11T01:10:22;7.80;;;4.70;;
50355;SDS011;36264;51.296;-0.602;2023-03-11T01:12:48;9.52;;;5.75;;
50355;SDS011;36264;51.296;-0.602;2023-03-11T01:15:16;9.63;;;5.00;;
50355;SDS011;36264;51.296;-0.602;2023-03-11T01:17:47;9.43;;;5.03;;
50355;SDS011;36264;51.296;-0.602;2023-03-11T01:20:12;10.18;;;5.93;;
50355;SDS011;36264;51.296;-0.602;2023-03-11T01:22:38;7.82;;;4.85;;
50355;SDS011;36264;51.296;-0.602;2023-03-11T01:25:03;10.57;;;5.15;;
50355;SDS011;36264;51.296;-0.602;2023-03-11T01:27:29;8.15;;;5.10;;
50355;SDS011;36264;51.296;-0.602;2023-03-11T01:29:55;8.23;;;4.90;;
50355;SDS011;36264;51.296;-0.602;2023-03-11T01:32:20;10.52;;;5.15;;
50355;SDS011;36264;51.296;-0.602;2023-03-11T01:34:45;9.85;;;5.38;;
50355;SDS011;36264;51.296;-0.602;2023-03-11T01:37:11;9.27;;;5.32;;
50355;SDS011;36264;51.296;-0.602;2023-03-11T01:39:36;9.05;;;5.00;;
50355;SDS011;36264;51.296;-0.602;2023-03-11T01:42:01;7.70;;;4.95;;
50355;SDS011;36264;51.296;-0.602;2023-03-11T01:44:27;8.50;;;5.05;;
50355;SDS011;36264;51.296;-0.602;2023-03-11T01:49:18;10.88;;;5.13;;
50355;SDS011;36264;51.296;-0.602;2023-03-11T01:51:46;12.73;;;5.43;;
50355;SDS011;36264;51.296;-0.602;2023-03-11T01:54:17;11.75;;;5.72;;
50355;SDS011;36264;51.296;-0.602;2023-03-11T01:56:46;10.48;;;5.50;;
50355;SDS011;36264;51.296;-0.602;2023-03-11T01:59:15;12.32;;;5.70;;
50355;SDS011;36264;51.296;-0.602;2023-03-11T02:01:48;10.63;;;5.80;;
50355;SDS011;36264;51.296;-0.602;2023-03-11T02:04:20;13.05;;;5.40;;
50355;SDS011;36264;51.296;-0.602;2023-03-11T02:06:46;14.38;;;5.85;;
50355;SDS011;36264;51.296;-0.602;2023-03-11T02:09:11;10.65;;;5.68;;
50355;SDS011;36264;51.296;-0.602;2023-03-11T02:11:37;11.73;;;6.05;;
50355;SDS011;36264;51.296;-0.602;2023-03-11T02:14:03;13.70;;;6.03;;
50355;SDS011;36264;51.296;-0.602;2023-03-11T02:16:32;9.82;;;5.22;;
50355;SDS011;36264;51.296;-0.602;2023-03-11T02:18:58;8.70;;;5.38;;
50355;SDS011;36264;51.296;-0.602;2023-03-11T02:21:29;11.07;;;5.72;;
50355;SDS011;36264;51.296;-0.602;2023-03-11T02:24:06;10.68;;;5.03;;
50355;SDS011;36264;51.296;-0.602;2023-03-11T02:29:25;14.63;;;7.53;;
50355;SDS011;36264;51.296;-0.602;2023-03-11T02:31:52;15.75;;;6.45;;
50355;SDS011;36264;51.296;-0.602;2023-03-11T02:34:23;15.13;;;6.70;;
50355;SDS011;36264;51.296;-0.602;2023-03-11T02:36:53;14.75;;;6.88;;
50355;SDS011;36264;51.296;-0.602;2023-03-11T02:39:32;15.45;;;6.93;;
50355;SDS011;36264;51.296;-0.602;2023-03-11T02:41:59;14.93;;;7.38;;
50355;SDS011;36264;51.296;-0.602;2023-03-11T02:44:29;15.27;;;7.20;;
50355;SDS011;36264;51.296;-0.602;2023-03-11T02:46:55;20.70;;;7.18;;
50355;SDS011;36264;51.296;-0.602;2023-03-11T02:49:20;14.95;;;7.22;;
50355;SDS011;36264;51.296;-0.602;2023-03-11T02:51:47;20.15;;;7.97;;
50355;SDS011;36264;51.296;-0.602;2023-03-11T02:54:12;12.10;;;7.28;;
50355;SDS011;36264;51.296;-0.602;2023-03-11T02:56:38;16.55;;;7.20;;
50355;SDS011;36264;51.296;-0.602;2023-03-11T02:59:03;18.15;;;7.72;;
50355;SDS011;36264;51.296;-0.602;2023-03-11T03:01:29;18.60;;;7.32;;
50355;SDS011;36264;51.296;-0.602;2023-03-11T03:03:54;17.30;;;6.78;;
50355;SDS011;36264;51.296;-0.602;2023-03-11T03:06:19;17.25;;;6.85;;
50355;SDS011;36264;51.296;-0.602;2023-03-11T03:08:45;17.48;;;8.48;;
50355;SDS011;36264;51.296;-0.602;2023-03-11T03:11:10;16.30;;;6.85;;
50355;SDS011;36264;51.296;-0.602;2023-03-11T03:13:36;12.57;;;7.22;;
50355;SDS011;36264;51.296;-0.602;2023-03-11T03:16:01;13.27;;;6.63;;
50355;SDS011;36264;51.296;-0.602;2023-03-11T03:18:27;13.80;;;5.68;;
50355;SDS011;36264;51.296;-0.602;2023-03-11T03:20:52;15.93;;;6.53;;
50355;SDS011;36264;51.296;-0.602;2023-03-11T03:23:18;16.73;;;6.63;;
50355;SDS011;36264;51.296;-0.602;2023-03-11T03:25:44;13.57;;;5.97;;
50355;SDS011;36264;51.296;-0.602;2023-03-11T03:28:10;12.90;;;5.95;;
50355;SDS011;36264;51.296;-0.602;2023-03-11T03:30:37;12.80;;;5.70;;
50355;SDS011;36264;51.296;-0.602;2023-03-11T03:33:03;10.02;;;5.38;;
50355;SDS011;36264;51.296;-0.602;2023-03-11T03:35:29;12.77;;;6.25;;
50355;SDS011;36264;51.296;-0.602;2023-03-11T03:37:56;12.60;;;5.93;;
50355;SDS011;36264;51.296;-0.602;2023-03-11T03:40:21;11.30;;;6.20;;
50355;SDS011;36264;51.296;-0.602;2023-03-11T03:42:47;10.65;;;5.95;;
50355;SDS011;36264;51.296;-0.602;2023-03-11T03:45:12;10.52;;;5.80;;
50355;SDS011;36264;51.296;-0.602;2023-03-11T03:47:37;11.30;;;5.65;;
50355;SDS011;36264;51.296;-0.602;2023-03-11T03:50:04;10.60;;;5.70;;
50355;SDS011;36264;51.296;-0.602;2023-03-11T03:52:30;12.32;;;6.20;;
50355;SDS011;36264;51.296;-0.602;2023-03-11T03:54:56;11.55;;;5.80;;
50355;SDS011;36264;51.296;-0.602;2023-03-11T03:57:21;9.90;;;5.78;;
50355;SDS011;36264;51.296;-0.602;2023-03-11T03:59:46;11.43;;;5.55;;
50355;SDS011;36264;51.296;-0.602;2023-03-11T04:02:12;9.70;;;5.50;;
50355;SDS011;36264;51.296;-0.602;2023-03-11T04:04:37;11.18;;;5.55;;
50355;SDS011;36264;51.296;-0.602;2023-03-11T04:07:06;12.20;;;5.97;;
50355;SDS011;36264;51.296;-0.602;2023-03-11T04:09:31;11.73;;;5.85;;
50355;SDS011;36264;51.296;-0.602;2023-03-11T04:11:57;10.25;;;5.50;;
50355;SDS011;36264;51.296;-0.602;2023-03-11T04:14:24;11.50;;;5.45;;
50355;SDS011;36264;51.296;-0.602;2023-03-11T04:16:50;11.10;;;5.50;;
50355;SDS011;36264;51.296;-0.602;2023-03-11T04:19:15;10.73;;;5.15;;
50355;SDS011;36264;51.296;-0.602;2023-03-11T04:21:41;8.95;;;5.07;;
50355;SDS011;36264;51.296;-0.602;2023-03-11T04:24:06;16.20;;;6.80;;
50355;SDS011;36264;51.296;-0.602;2023-03-11T04:26:32;11.75;;;6.05;;
50355;SDS011;36264;51.296;-0.602;2023-03-11T04:28:57;10.45;;;5.70;;
50355;SDS011;36264;51.296;-0.602;2023-03-11T04:31:23;8.77;;;5.18;;
50355;SDS011;36264;51.296;-0.602;2023-03-11T04:33:48;10.52;;;5.57;;
50355;SDS011;36264;51.296;-0.602;2023-03-11T04:36:14;10.65;;;4.90;;
50355;SDS011;36264;51.296;-0.602;2023-03-11T04:38:39;8.27;;;5.18;;
50355;SDS011;36264;51.296;-0.602;2023-03-11T04:41:04;9.05;;;5.45;;
50355;SDS011;36264;51.296;-0.602;2023-03-11T04:43:31;10.38;;;5.50;;
50355;SDS011;36264;51.296;-0.602;2023-03-11T04:45:57;12.15;;;5.45;;
50355;SDS011;36264;51.296;-0.602;2023-03-11T04:48:22;12.32;;;5.20;;
50355;SDS011;36264;51.296;-0.602;2023-03-11T04:50:49;11.55;;;5.40;;
50355;SDS011;36264;51.296;-0.602;2023-03-11T04:53:14;9.20;;;5.78;;
50355;SDS011;36264;51.296;-0.602;2023-03-11T04:55:40;10.43;;;5.28;;
50355;SDS011;36264;51.296;-0.602;2023-03-11T04:58:05;7.75;;;5.30;;
50355;SDS011;36264;51.296;-0.602;2023-03-11T05:00:30;10.18;;;5.40;;
50355;SDS011;36264;51.296;-0.602;2023-03-11T05:02:56;9.82;;;5.00;;
50355;SDS011;36264;51.296;-0.602;2023-03-11T05:05:21;11.48;;;5.07;;
50355;SDS011;36264;51.296;-0.602;2023-03-11T05:07:47;10.93;;;5.97;;
50355;SDS011;36264;51.296;-0.602;2023-03-11T05:10:13;12.50;;;5.70;;
50355;SDS011;36264;51.296;-0.602;2023-03-11T05:12:39;10.80;;;5.45;;
50355;SDS011;36264;51.296;-0.602;2023-03-11T05:15:05;12.55;;;5.95;;
50355;SDS011;36264;51.296;-0.602;2023-03-11T05:17:31;10.25;;;5.13;;
50355;SDS011;36264;51.296;-0.602;2023-03-11T05:19:57;9.18;;;5.00;;
50355;SDS011;36264;51.296;-0.602;2023-03-11T05:22:22;8.85;;;5.10;;
50355;SDS011;36264;51.296;-0.602;2023-03-11T05:24:48;12.15;;;5.45;;
50355;SDS011;36264;51.296;-0.602;2023-03-11T05:27:13;10.15;;;5.25;;
50355;SDS011;36264;51.296;-0.602;2023-03-11T05:29:42;8.95;;;5.00;;
50355;SDS011;36264;51.296;-0.602;2023-03-11T05:32:08;9.13;;;4.93;;
50355;SDS011;36264;51.296;-0.602;2023-03-11T05:34:34;9.82;;;5.13;;
50355;SDS011;36264;51.296;-0.602;2023-03-11T05:37:00;10.35;;;4.72;;
50355;SDS011;36264;51.296;-0.602;2023-03-11T05:39:26;8.13;;;5.03;;
50355;SDS011;36264;51.296;-0.602;2023-03-11T05:41:51;8.60;;;5.15;;
50355;SDS011;36264;51.296;-0.602;2023-03-11T05:44:16;10.07;;;5.13;;
50355;SDS011;36264;51.296;-0.602;2023-03-11T05:46:42;10.93;;;5.40;;
50355;SDS011;36264;51.296;-0.602;2023-03-11T05:49:07;8.35;;;5.15;;
50355;SDS011;36264;51.296;-0.602;2023-03-11T05:51:32;8.60;;;5.40;;
50355;SDS011;36264;51.296;-0.602;2023-03-11T05:53:59;9.05;;;4.68;;
50355;SDS011;36264;51.296;-0.602;2023-03-11T05:56:24;10.65;;;5.45;;
50355;SDS011;36264;51.296;-0.602;2023-03-11T05:58:50;10.30;;;4.70;;
50355;SDS011;36264;51.296;-0.602;2023-03-11T06:01:16;10.57;;;4.85;;
50355;SDS011;36264;51.296;-0.602;2023-03-11T06:03:42;8.65;;;5.28;;
50355;SDS011;36264;51.296;-0.602;2023-03-11T06:06:09;9.75;;;5.10;;
50355;SDS011;36264;51.296;-0.602;2023-03-11T06:08:36;9.50;;;5.15;;
50355;SDS011;36264;51.296;-0.602;2023-03-11T06:11:02;10.23;;;5.57;;
50355;SDS011;36264;51.296;-0.602;2023-03-11T06:13:32;7.97;;;4.38;;
50355;SDS011;36264;51.296;-0.602;2023-03-11T06:15:58;8.00;;;4.38;;
50355;SDS011;36264;51.296;-0.602;2023-03-11T06:18:23;9.60;;;4.78;;
50355;SDS011;36264;51.296;-0.602;2023-03-11T06:20:50;8.20;;;4.22;;
50355;SDS011;36264;51.296;-0.602;2023-03-11T06:23:16;8.52;;;4.90;;
50355;SDS011;36264;51.296;-0.602;2023-03-11T06:25:42;9.20;;;5.00;;
50355;SDS011;36264;51.296;-0.602;2023-03-11T06:28:07;10.27;;;4.90;;
50355;SDS011;36264;51.296;-0.602;2023-03-11T06:30:32;13.55;;;4.75;;
50355;SDS011;36264;51.296;-0.602;2023-03-11T06:32:58;9.77;;;4.82;;
50355;SDS011;36264;51.296;-0.602;2023-03-11T06:35:23;9.30;;;4.47;;
50355;SDS011;36264;51.296;-0.602;2023-03-11T06:37:49;9.63;;;5.03;;
50355;SDS011;36264;51.296;-0.602;2023-03-11T06:40:15;9.90;;;4.80;;
50355;SDS011;36264;51.296;-0.602;2023-03-11T06:42:40;10.07;;;4.57;;
50355;SDS011;36264;51.296;-0.602;2023-03-11T06:45:06;9.05;;;5.10;;
50355;SDS011;36264;51.296;-0.602;2023-03-11T06:47:32;10.48;;;4.57;;
50355;SDS011;36264;51.296;-0.602;2023-03-11T06:49:57;9.57;;;5.18;;
50355;SDS011;36264;51.296;-0.602;2023-03-11T06:52:22;9.13;;;4.82;;
50355;SDS011;36264;51.296;-0.602;2023-03-11T06:54:48;9.50;;;4.90;;
50355;SDS011;36264;51.296;-0.602;2023-03-11T06:57:13;10.10;;;5.03;;
50355;SDS011;36264;51.296;-0.602;2023-03-11T06:59:39;9.40;;;4.47;;
50355;SDS011;36264;51.296;-0.602;2023-03-11T07:02:05;10.60;;;5.07;;
50355;SDS011;36264;51.296;-0.602;2023-03-11T07:04:30;9.10;;;4.57;;
50355;SDS011;36264;51.296;-0.602;2023-03-11T07:06:57;8.95;;;5.20;;
50355;SDS011;36264;51.296;-0.602;2023-03-11T07:09:22;7.78;;;4.40;;
50355;SDS011;36264;51.296;-0.602;2023-03-11T07:11:49;9.35;;;4.35;;
50355;SDS011;36264;51.296;-0.602;2023-03-11T07:14:18;8.93;;;4.47;;
50355;SDS011;36264;51.296;-0.602;2023-03-11T07:16:44;9.45;;;5.10;;
50355;SDS011;36264;51.296;-0.602;2023-03-11T07:19:10;10.15;;;4.95;;
50355;SDS011;36264;51.296;-0.602;2023-03-11T07:21:36;14.48;;;4.95;;
50355;SDS011;36264;51.296;-0.602;2023-03-11T07:24:02;10.75;;;4.60;;
50355;SDS011;36264;51.296;-0.602;2023-03-11T07:26:28;8.23;;;4.35;;
50355;SDS011;36264;51.296;-0.602;2023-03-11T07:28:55;8.90;;;4.70;;
50355;SDS011;36264;51.296;-0.602;2023-03-11T07:31:22;7.72;;;4.70;;
50355;SDS011;36264;51.296;-0.602;2023-03-11T07:33:49;7.88;;;4.60;;
50355;SDS011;36264;51.296;-0.602;2023-03-11T07:36:16;9.40;;;4.13;;
50355;SDS011;36264;51.296;-0.602;2023-03-11T07:38:44;9.10;;;4.55;;
50355;SDS011;36264;51.296;-0.602;2023-03-11T07:41:10;8.80;;;4.90;;
50355;SDS011;36264;51.296;-0.602;2023-03-11T07:43:37;7.18;;;4.28;;
50355;SDS011;36264;51.296;-0.602;2023-03-11T07:46:08;8.48;;;4.63;;
50355;SDS011;36264;51.296;-0.602;2023-03-11T07:48:38;9.38;;;4.50;;
50355;SDS011;36264;51.296;-0.602;2023-03-11T07:51:05;8.65;;;4.50;;
50355;SDS011;36264;51.296;-0.602;2023-03-11T07:53:33;9.70;;;4.70;;
50355;SDS011;36264;51.296;-0.602;2023-03-11T07:55:59;9.20;;;4.72;;
50355;SDS011;36264;51.296;-0.602;2023-03-11T07:58:25;7.93;;;4.38;;
50355;SDS011;36264;51.296;-0.602;2023-03-11T08:00:51;8.80;;;4.50;;
50355;SDS011;36264;51.296;-0.602;2023-03-11T08:03:17;7.28;;;4.30;;
50355;SDS011;36264;51.296;-0.602;2023-03-11T08:05:42;10.00;;;5.15;;
50355;SDS011;36264;51.296;-0.602;2023-03-11T08:08:08;10.50;;;5.15;;
50355;SDS011;36264;51.296;-0.602;2023-03-11T08:10:37;9.63;;;5.22;;
50355;SDS011;36264;51.296;-0.602;2023-03-11T08:13:03;9.23;;;4.68;;
50355;SDS011;36264;51.296;-0.602;2023-03-11T08:15:29;10.63;;;5.30;;
50355;SDS011;36264;51.296;-0.602;2023-03-11T08:17:54;8.52;;;5.00;;
50355;SDS011;36264;51.296;-0.602;2023-03-11T08:20:19;9.15;;;5.75;;
50355;SDS011;36264;51.296;-0.602;2023-03-11T08:22:45;8.90;;;5.00;;
50355;SDS011;36264;51.296;-0.602;2023-03-11T08:25:10;9.15;;;5.30;;
50355;SDS011;36264;51.296;-0.602;2023-03-11T08:27:35;11.57;;;5.43;;
50355;SDS011;36264;51.296;-0.602;2023-03-11T08:30:01;10.50;;;5.38;;
50355;SDS011;36264;51.296;-0.602;2023-03-11T08:32:26;10.48;;;5.15;;
50355;SDS011;36264;51.296;-0.602;2023-03-11T08:34:55;10.68;;;5.50;;
50355;SDS011;36264;51.296;-0.602;2023-03-11T08:37:21;15.40;;;6.20;;
50355;SDS011;36264;51.296;-0.602;2023-03-11T08:39:46;11.20;;;5.65;;
50355;SDS011;36264;51.296;-0.602;2023-03-11T08:42:12;14.18;;;6.88;;
50355;SDS011;36264;51.296;-0.602;2023-03-11T08:44:37;11.35;;;6.13;;
50355;SDS011;36264;51.296;-0.602;2023-03-11T08:47:02;15.57;;;6.78;;
50355;SDS011;36264;51.296;-0.602;2023-03-11T08:49:28;15.57;;;6.40;;
50355;SDS011;36264;51.296;-0.602;2023-03-11T08:51:54;20.65;;;8.18;;
50355;SDS011;36264;51.296;-0.602;2023-03-11T08:54:20;17.20;;;8.30;;
50355;SDS011;36264;51.296;-0.602;2023-03-11T08:56:45;23.33;;;9.73;;
50355;SDS011;36264;51.296;-0.602;2023-03-11T08:59:12;16.02;;;7.75;;
50355;SDS011;36264;51.296;-0.602;2023-03-11T09:01:38;16.88;;;6.80;;
50355;SDS011;36264;51.296;-0.602;2023-03-11T09:04:03;15.98;;;6.82;;
50355;SDS011;36264;51.296;-0.602;2023-03-11T09:06:29;13.48;;;5.55;;
50355;SDS011;36264;51.296;-0.602;2023-03-11T09:08:54;10.02;;;4.95;;
50355;SDS011;36264;51.296;-0.602;2023-03-11T09:11:20;9.65;;;4.97;;
50355;SDS011;36264;51.296;-0.602;2023-03-11T09:13:47;10.05;;;4.82;;
50355;SDS011;36264;51.296;-0.602;2023-03-11T09:16:17;6.25;;;3.65;;
50355;SDS011;36264;51.296;-0.602;2023-03-11T09:18:45;7.20;;;3.47;;
50355;SDS011;36264;51.296;-0.602;2023-03-11T09:21:10;7.07;;;3.03;;
50355;SDS011;36264;51.296;-0.602;2023-03-11T09:23:37;8.10;;;3.40;;
50355;SDS011;36264;51.296;-0.602;2023-03-11T09:26:02;11.27;;;4.38;;
50355;SDS011;36264;51.296;-0.602;2023-03-11T09:28:28;7.03;;;3.38;;
50355;SDS011;36264;51.296;-0.602;2023-03-11T09:30:53;6.70;;;3.00;;
50355;SDS011;36264;51.296;-0.602;2023-03-11T09:33:19;5.53;;;2.70;;
50355;SDS011;36264;51.296;-0.602;2023-03-11T09:35:44;6.40;;;2.85;;
50355;SDS011;36264;51.296;-0.602;2023-03-11T09:38:10;7.55;;;2.97;;
50355;SDS011;36264;51.296;-0.602;2023-03-11T09:40:44;7.32;;;2.30;;
50355;SDS011;36264;51.296;-0.602;2023-03-11T09:46:11;5.25;;;2.00;;
50355;SDS011;36264;51.296;-0.602;2023-03-11T09:48:43;6.35;;;2.40;;
50355;SDS011;36264;51.296;-0.602;2023-03-11T09:51:27;6.57;;;2.33;;
50355;SDS011;36264;51.296;-0.602;2023-03-11T09:53:57;5.78;;;2.08;;
50355;SDS011;36264;51.296;-0.602;2023-03-11T09:56:26;5.53;;;2.55;;
50355;SDS011;36264;51.296;-0.602;2023-03-11T09:58:59;7.47;;;2.30;;
50355;SDS011;36264;51.296;-0.602;2023-03-11T10:01:29;5.15;;;2.22;;
50355;SDS011;36264;51.296;-0.602;2023-03-11T10:06:33;7.30;;;2.55;;
50355;SDS011;36264;51.296;-0.602;2023-03-11T10:09:01;5.90;;;2.33;;
50355;SDS011;36264;51.296;-0.602;2023-03-11T10:17:16;6.68;;;1.90;;
50355;SDS011;36264;51.296;-0.602;2023-03-11T10:25:10;8.10;;;1.70;;
50355;SDS011;36264;51.296;-0.602;2023-03-11T10:27:42;4.45;;;1.50;;
50355;SDS011;36264;51.296;-0.602;2023-03-11T10:33:01;3.40;;;1.58;;
50355;SDS011;36264;51.296;-0.602;2023-03-11T10:38:15;6.82;;;1.92;;
50355;SDS011;36264;51.296;-0.602;2023-03-11T10:40:47;5.70;;;2.00;;
50355;SDS011;36264;51.296;-0.602;2023-03-11T10:43:34;3.38;;;1.60;;
50355;SDS011;36264;51.296;-0.602;2023-03-11T10:46:08;4.47;;;1.50;;
50355;SDS011;36264;51.296;-0.602;2023-03-11T10:48:42;6.13;;;1.98;;
50355;SDS011;36264;51.296;-0.602;2023-03-11T10:51:18;5.28;;;1.70;;
50355;SDS011;36264;51.296;-0.602;2023-03-11T10:53:51;4.05;;;1.55;;
50355;SDS011;36264;51.296;-0.602;2023-03-11T10:58:48;6.85;;;2.80;;
50355;SDS011;36264;51.296;-0.602;2023-03-11T11:01:15;7.72;;;2.30;;
50355;SDS011;36264;51.296;-0.602;2023-03-11T11:03:42;7.20;;;1.95;;
50355;SDS011;36264;51.296;-0.602;2023-03-11T11:06:24;6.38;;;2.30;;
50355;SDS011;36264;51.296;-0.602;2023-03-11T11:11:31;4.82;;;1.50;;
50355;SDS011;36264;51.296;-0.602;2023-03-11T11:13:59;4.68;;;1.83;;
50355;SDS011;36264;51.296;-0.602;2023-03-11T11:16:25;3.72;;;1.80;;
50355;SDS011;36264;51.296;-0.602;2023-03-11T11:19:03;6.80;;;2.45;;
50355;SDS011;36264;51.296;-0.602;2023-03-11T11:21:40;6.45;;;2.00;;
50355;SDS011;36264;51.296;-0.602;2023-03-11T11:24:25;5.28;;;1.35;;
50355;SDS011;36264;51.296;-0.602;2023-03-11T11:29:40;5.68;;;2.00;;
50355;SDS011;36264;51.296;-0.602;2023-03-11T11:34:38;5.20;;;1.80;;
50355;SDS011;36264;51.296;-0.602;2023-03-11T11:37:04;5.30;;;2.17;;
50355;SDS011;36264;51.296;-0.602;2023-03-11T11:39:37;7.53;;;2.00;;
50355;SDS011;36264;51.296;-0.602;2023-03-11T11:42:15;5.57;;;1.90;;
50355;SDS011;36264;51.296;-0.602;2023-03-11T11:44:41;4.20;;;1.83;;
50355;SDS011;36264;51.296;-0.602;2023-03-11T11:47:11;6.22;;;1.60;;
50355;SDS011;36264;51.296;-0.602;2023-03-11T11:49:55;5.28;;;2.00;;
50355;SDS011;36264;51.296;-0.602;2023-03-11T11:52:25;6.40;;;1.85;;
50355;SDS011;36264;51.296;-0.602;2023-03-11T11:55:00;4.38;;;1.38;;
50355;SDS011;36264;51.296;-0.602;2023-03-11T11:57:30;4.65;;;1.55;;
50355;SDS011;36264;51.296;-0.602;2023-03-11T11:59:56;2.75;;;1.50;;
50355;SDS011;36264;51.296;-0.602;2023-03-11T12:05:09;5.72;;;1.67;;
50355;SDS011;36264;51.296;-0.602;2023-03-11T12:10:53;2.90;;;1.50;;
50355;SDS011;36264;51.296;-0.602;2023-03-11T12:27:21;4.38;;;1.75;;
50355;SDS011;36264;51.296;-0.602;2023-03-11T12:29:52;5.75;;;1.70;;
50355;SDS011;36264;51.296;-0.602;2023-03-11T12:32:27;4.47;;;1.70;;
50355;SDS011;36264;51.296;-0.602;2023-03-11T12:35:18;5.03;;;1.60;;
50355;SDS011;36264;51.296;-0.602;2023-03-11T12:45:57;6.75;;;1.60;;
50355;SDS011;36264;51.296;-0.602;2023-03-11T12:50:52;5.18;;;1.40;;
50355;SDS011;36264;51.296;-0.602;2023-03-11T12:53:18;2.03;;;1.10;;
50355;SDS011;36264;51.296;-0.602;2023-03-11T12:56:04;5.35;;;1.70;;
50355;SDS011;36264;51.296;-0.602;2023-03-11T13:04:00;3.70;;;1.45;;
50355;SDS011;36264;51.296;-0.602;2023-03-11T13:06:43;6.22;;;1.45;;
50355;SDS011;36264;51.296;-0.602;2023-03-11T13:09:15;7.70;;;1.88;;
50355;SDS011;36264;51.296;-0.602;2023-03-11T13:11:42;3.25;;;1.30;;
50355;SDS011;36264;51.296;-0.602;2023-03-11T13:14:29;3.70;;;1.52;;
50355;SDS011;36264;51.296;-0.602;2023-03-11T13:19:49;3.80;;;1.48;;
50355;SDS011;36264;51.296;-0.602;2023-03-11T13:33:51;6.05;;;1.50;;
50355;SDS011;36264;51.296;-0.602;2023-03-11T13:41:30;5.05;;;1.67;;
50355;SDS011;36264;51.296;-0.602;2023-03-11T13:43:59;5.82;;;1.60;;
50355;SDS011;36264;51.296;-0.602;2023-03-11T13:46:41;6.30;;;1.73;;
50355;SDS011;36264;51.296;-0.602;2023-03-11T13:52:34;5.40;;;1.60;;
50355;SDS011;36264;51.296;-0.602;2023-03-11T13:57:33;6.53;;;1.70;;
50355;SDS011;36264;51.296;-0.602;2023-03-11T14:00:12;8.90;;;1.60;;
50355;SDS011;36264;51.296;-0.602;2023-03-11T14:02:44;4.85;;;1.40;;
50355;SDS011;36264;51.296;-0.602;2023-03-11T14:05:20;3.45;;;1.50;;
50355;SDS011;36264;51.296;-0.602;2023-03-11T14:07:48;3.67;;;1.60;;
50355;SDS011;36264;51.296;-0.602;2023-03-11T14:10:21;4.63;;;1.80;;
50355;SDS011;36264;51.296;-0.602;2023-03-11T14:13:03;5.25;;;2.08;;
50355;SDS011;36264;51.296;-0.602;2023-03-11T14:15:31;7.40;;;1.85;;
50355;SDS011;36264;51.296;-0.602;2023-03-11T14:20:53;4.38;;;1.70;;
50355;SDS011;36264;51.296;-0.602;2023-03-11T14:23:19;3.58;;;1.60;;
50355;SDS011;36264;51.296;-0.602;2023-03-11T14:25:45;4.28;;;1.60;;
50355;SDS011;36264;51.296;-0.602;2023-03-11T14:28:19;4.70;;;1.73;;
50355;SDS011;36264;51.296;-0.602;2023-03-11T14:30:55;5.32;;;1.55;;
50355;SDS011;36264;51.296;-0.602;2023-03-11T14:33:22;10.30;;;1.77;;
50355;SDS011;36264;51.296;-0.602;2023-03-11T14:38:21;4.38;;;1.50;;
50355;SDS011;36264;51.296;-0.602;2023-03-11T14:40:52;6.30;;;1.37;;
50355;SDS011;36264;51.296;-0.602;2023-03-11T14:43:36;3.40;;;1.80;;
50355;SDS011;36264;51.296;-0.602;2023-03-11T14:46:05;4.40;;;1.80;;
50355;SDS011;36264;51.296;-0.602;2023-03-11T14:48:38;3.55;;;1.50;;
50355;SDS011;36264;51.296;-0.602;2023-03-11T14:51:10;4.95;;;1.73;;
50355;SDS011;36264;51.296;-0.602;2023-03-11T14:53:42;5.93;;;1.50;;
50355;SDS011;36264;51.296;-0.602;2023-03-11T14:56:12;3.80;;;1.40;;
50355;SDS011;36264;51.296;-0.602;2023-03-11T14:59:04;7.20;;;1.60;;
50355;SDS011;36264;51.296;-0.602;2023-03-11T15:01:36;6.28;;;1.55;;
50355;SDS011;36264;51.296;-0.602;2023-03-11T15:06:31;4.05;;;1.40;;
50355;SDS011;36264;51.296;-0.602;2023-03-11T15:09:01;7.00;;;1.60;;
50355;SDS011;36264;51.296;-0.602;2023-03-11T15:11:42;4.68;;;1.27;;
50355;SDS011;36264;51.296;-0.602;2023-03-11T15:14:26;2.92;;;1.33;;
50355;SDS011;36264;51.296;-0.602;2023-03-11T15:16:52;5.57;;;1.40;;
50355;SDS011;36264;51.296;-0.602;2023-03-11T15:19:22;4.60;;;1.30;;
50355;SDS011;36264;51.296;-0.602;2023-03-11T15:21:57;2.47;;;1.40;;
50355;SDS011;36264;51.296;-0.602;2023-03-11T15:24:27;4.35;;;1.40;;
50355;SDS011;36264;51.296;-0.602;2023-03-11T15:27:03;4.00;;;1.33;;
50355;SDS011;36264;51.296;-0.602;2023-03-11T15:29:45;7.38;;;1.73;;
50355;SDS011;36264;51.296;-0.602;2023-03-11T15:32:23;3.75;;;1.58;;
50355;SDS011;36264;51.296;-0.602;2023-03-11T15:35:11;3.28;;;1.60;;
50355;SDS011;36264;51.296;-0.602;2023-03-11T15:37:42;6.05;;;1.27;;
50355;SDS011;36264;51.296;-0.602;2023-03-11T15:40:17;3.60;;;1.42;;
50355;SDS011;36264;51.296;-0.602;2023-03-11T15:42:43;3.92;;;1.38;;
50355;SDS011;36264;51.296;-0.602;2023-03-11T15:47:37;3.05;;;1.30;;
50355;SDS011;36264;51.296;-0.602;2023-03-11T15:50:17;3.45;;;1.35;;
50355;SDS011;36264;51.296;-0.602;2023-03-11T15:52:52;3.30;;;1.27;;
50355;SDS011;36264;51.296;-0.602;2023-03-11T15:55:20;3.47;;;1.27;;
50355;SDS011;36264;51.296;-0.602;2023-03-11T15:57:47;4.07;;;1.38;;
50355;SDS011;36264;51.296;-0.602;2023-03-11T16:00:18;2.75;;;1.42;;
50355;SDS011;36264;51.296;-0.602;2023-03-11T16:02:46;3.13;;;1.33;;
50355;SDS011;36264;51.296;-0.602;2023-03-11T16:05:13;2.20;;;1.15;;
50355;SDS011;36264;51.296;-0.602;2023-03-11T16:07:40;3.88;;;1.30;;
50355;SDS011;36264;51.296;-0.602;2023-03-11T16:10:07;3.33;;;1.33;;
50355;SDS011;36264;51.296;-0.602;2023-03-11T16:12:33;3.47;;;1.48;;
50355;SDS011;36264;51.296;-0.602;2023-03-11T16:14:59;3.20;;;1.20;;
50355;SDS011;36264;51.296;-0.602;2023-03-11T16:17:24;5.53;;;1.55;;
50355;SDS011;36264;51.296;-0.602;2023-03-11T16:19:50;4.50;;;1.40;;
50355;SDS011;36264;51.296;-0.602;2023-03-11T16:22:34;4.35;;;1.23;;
50355;SDS011;36264;51.296;-0.602;2023-03-11T16:25:01;3.42;;;1.27;;
50355;SDS011;36264;51.296;-0.602;2023-03-11T16:27:28;5.78;;;1.58;;